Time;durP1;ratioP1;P1;durP2;ratioP2;P2;SDS_P1;SDS_P2;PMS_P1;PMS_P2;Temp;Humidity;BMP_temperature;BMP_pressure;BME280_temperature;BME280_humidity;BME280_pressure;Samples;Min_cycle;Max_cycle;Signal;HPM_P1;HPM_P2
2021/05/30 00:01:51;;;;;;;19.00;16.05;;;;;;;-150.07;46.66;62537.66;5052728;28;20506;-79
2021/05/30 00:04:19;;;;;;;18.10;16.13;;;;;;;-150.07;46.25;62566.94;5045428;28;20492;-75
2021/05/30 00:06:46;;;;;;;19.70;15.00;;;;;;;-150.07;45.74;62539.75;5031332;28;20022;-79
2021/05/30 00:09:14;;;;;;;32.88;16.77;;;;;;;-150.07;46.21;63234.72;5029187;28;20071;-81
2021/05/30 00:11:41;;;;;;;26.00;15.38;;;;;;;-150.07;46.63;62520.91;5018706;28;20565;-79
2021/05/30 00:14:08;;;;;;;16.55;14.45;;;;;;;-150.07;46.84;63416.84;5031241;28;20118;-79
2021/05/30 00:16:35;;;;;;;15.27;13.70;;;;;;;-150.07;45.68;62466.47;5026049;28;20438;-77
2021/05/30 00:19:05;;;;;;;18.25;14.75;;;;;;;-150.07;46.02;62152.53;5021302;28;20580;-79
2021/05/30 00:21:32;;;;;;;24.20;15.23;;;;;;;-150.07;46.00;62604.63;5016325;28;20040;-78
2021/05/30 00:23:59;;;;;;;27.83;13.20;;;;;;;-150.07;46.05;62682.06;5023975;28;20112;-78
2021/05/30 00:26:26;;;;;;;18.85;14.15;;;;;;;-150.07;46.38;62640.22;5011990;28;20034;-78
2021/05/30 00:28:53;;;;;;;21.42;15.82;;;;;;;-150.07;46.24;62508.34;5014038;28;20075;-79
2021/05/30 00:31:20;;;;;;;25.15;15.30;;;;;;;-150.07;46.40;62445.56;5028773;28;20037;-78
2021/05/30 00:33:48;;;;;;;19.30;15.73;;;;;;;-150.07;46.75;62525.09;5024534;28;20029;-78
2021/05/30 00:36:15;;;;;;;17.83;15.02;;;;;;;-150.07;47.12;62663.22;5016859;28;20040;-79
2021/05/30 00:38:41;;;;;;;25.73;17.58;;;;;;;-150.07;45.63;62579.50;5028468;28;20025;-78
2021/05/30 00:41:08;;;;;;;19.58;13.90;;;;;;;-150.07;45.44;62675.78;5026568;28;20126;-78
2021/05/30 00:43:48;;;;;;;18.05;13.25;;;;;;;-150.07;45.82;62659.03;5010857;28;20400;-78
2021/05/30 00:46:16;;;;;;;15.98;11.10;;;;;;;-150.07;45.48;63182.38;5016624;28;20116;-78
2021/05/30 00:48:43;;;;;;;17.23;12.15;;;;;;;-150.07;45.59;62504.16;5029861;28;20464;-79
2021/05/30 00:51:10;;;;;;;15.73;12.75;;;;;;;-150.07;45.54;62726.03;5016401;28;20112;-77
2021/05/30 00:53:38;;;;;;;17.02;12.80;;;;;;;-150.07;44.09;63071.41;5030006;28;20032;-79
2021/05/30 00:56:09;;;;;;;18.73;14.27;;;;;;;-150.07;43.91;62744.88;5014662;28;20044;-78
2021/05/30 00:58:39;;;;;;;15.48;11.90;;;;;;;-150.07;43.80;62738.59;5029816;28;20111;-76
2021/05/30 01:01:07;;;;;;;15.13;11.35;;;;;;;-150.07;44.19;62826.50;5023964;28;20030;-78
2021/05/30 01:03:36;;;;;;;13.50;10.40;;;;;;;-150.07;43.81;62744.88;5010886;28;20112;-77
2021/05/30 01:06:04;;;;;;;13.32;11.68;;;;;;;-150.07;43.89;62788.81;5015595;28;20059;-78
2021/05/30 01:08:31;;;;;;;12.40;11.00;;;;;;;-150.07;44.02;63391.72;5029000;28;20029;-77
2021/05/30 01:11:00;;;;;;;14.90;9.95;;;;;;;-150.07;42.79;62583.69;5013840;28;20053;-76
2021/05/30 01:13:28;;;;;;;15.48;9.05;;;;;;;-150.07;43.41;62887.22;5029898;28;20063;-78
2021/05/30 01:15:55;;;;;;;11.90;8.88;;;;;;;-150.07;42.22;62857.91;5030219;28;20029;-78
2021/05/30 01:18:24;;;;;;;12.00;10.35;;;;;;;-150.07;42.86;62751.16;5030249;28;20486;-78
2021/05/30 01:20:54;;;;;;;9.57;8.20;;;;;;;-150.07;43.14;62910.25;5030307;28;20346;-77
2021/05/30 01:23:22;;;;;;;9.48;7.65;;;;;;;-150.07;41.92;62755.34;5030538;28;20064;-78
2021/05/30 01:25:49;;;;;;;10.80;6.78;;;;;;;-150.07;41.64;62981.41;5035029;28;20100;-78
2021/05/30 01:28:18;;;;;;;14.60;7.85;;;;;;;-150.07;40.82;62822.31;5034530;28;20022;-78
2021/05/30 01:30:46;;;;;;;14.18;7.07;;;;;;;-150.07;40.51;62466.47;5034634;28;20381;-79
2021/05/30 01:33:13;;;;;;;12.18;6.88;;;;;;;-150.07;40.40;62811.84;5034435;28;20017;-79
2021/05/30 01:35:39;;;;;;;7.43;6.07;;;;;;;-150.07;41.08;62836.97;5032050;28;20021;-79
2021/05/30 01:38:07;;;;;;;11.35;6.28;;;;;;;-150.07;40.77;62809.75;5033062;28;20045;-78
2021/05/30 01:40:34;;;;;;;7.78;6.32;;;;;;;-150.07;40.85;62874.66;5031329;28;20071;-79
2021/05/30 01:43:01;;;;;;;11.45;6.88;;;;;;;-150.07;40.47;62746.97;5033066;28;20037;-78
2021/05/30 01:45:31;;;;;;;8.73;6.25;;;;;;;-150.07;40.39;62952.09;5033993;28;20026;-77
2021/05/30 01:47:58;;;;;;;12.05;7.63;;;;;;;-150.07;39.80;63527.81;5033985;28;20478;-77
2021/05/30 01:50:27;;;;;;;7.15;5.75;;;;;;;-150.07;40.24;62866.28;5034084;28;20032;-78
2021/05/30 01:52:55;;;;;;;6.78;6.10;;;;;;;-150.07;40.80;62899.78;5033662;28;20474;-78
2021/05/30 01:55:28;;;;;;;10.38;5.90;;;;;;;-150.07;40.55;62947.91;5034003;28;20033;-78
2021/05/30 01:57:57;;;;;;;7.25;5.20;;;;;;;-150.07;40.88;63044.22;5033761;28;20021;-77
2021/05/30 02:00:25;;;;;;;6.32;5.30;;;;;;;-150.07;40.12;63724.59;5033851;28;20474;-78
2021/05/30 02:02:54;;;;;;;10.07;6.05;;;;;;;-150.07;39.01;62956.28;5022931;28;20109;-77
2021/05/30 02:05:22;;;;;;;6.78;5.32;;;;;;;-150.07;39.54;63140.50;5016381;28;20487;-76
2021/05/30 02:07:51;;;;;;;6.35;5.75;;;;;;;-150.07;38.60;63680.63;5028959;28;20029;-77
2021/05/30 02:10:20;;;;;;;9.23;5.10;;;;;;;-150.07;38.99;62933.25;5022414;28;20032;-78
2021/05/30 02:12:49;;;;;;;6.90;3.78;;;;;;;-150.07;39.18;63148.88;5019217;28;20037;-78
2021/05/30 02:15:18;;;;;;;6.15;4.53;;;;;;;-150.07;38.92;63178.19;5013916;28;20396;-79
2021/05/30 02:17:45;;;;;;;7.03;5.55;;;;;;;-150.07;38.80;63257.75;5014125;28;20029;-79
2021/05/30 02:20:13;;;;;;;8.63;4.72;;;;;;;-150.07;38.50;63153.06;5013620;28;20061;-78
2021/05/30 02:22:41;;;;;;;5.40;4.90;;;;;;;-150.07;37.95;63107.00;5013468;28;20026;-77
2021/05/30 02:25:10;;;;;;;6.43;5.82;;;;;;;-150.07;38.83;63182.38;5022145;28;20052;-78
2021/05/30 02:27:38;;;;;;;4.93;4.53;;;;;;;-150.07;38.55;63251.47;5020953;28;20113;-76
2021/05/30 02:30:06;;;;;;;9.88;4.97;;;;;;;-150.07;37.37;63236.81;5013880;28;20080;-76
2021/05/30 02:32:33;;;;;;;7.65;5.40;;;;;;;-150.07;37.08;62889.31;5021064;28;20021;-77
2021/05/30 02:34:59;;;;;;;5.28;4.78;;;;;;;-150.07;37.55;63060.97;5016591;28;20026;-77
2021/05/30 02:37:26;;;;;;;6.55;4.45;;;;;;;-150.07;37.71;62889.31;5020894;28;20474;-77
2021/05/30 02:39:53;;;;;;;7.15;5.00;;;;;;;-150.07;37.63;63695.28;5033592;28;20045;-77
2021/05/30 02:42:20;;;;;;;7.93;4.35;;;;;;;-150.07;37.59;63161.44;5035703;28;20030;-79
2021/05/30 02:44:47;;;;;;;7.63;4.03;;;;;;;-150.07;38.70;63923.50;5028905;28;20104;-78
2021/05/30 02:47:13;;;;;;;7.63;5.32;;;;;;;-150.07;38.70;63065.16;5015007;28;20471;-77
2021/05/30 02:49:40;;;;;;;6.85;5.30;;;;;;;-150.07;37.63;63730.88;5014468;28;20070;-78
2021/05/30 02:52:07;;;;;;;7.75;4.82;;;;;;;-150.07;38.33;63580.16;5013998;28;20030;-76
2021/05/30 02:54:34;;;;;;;6.22;4.30;;;;;;;-150.07;38.08;63402.19;5015105;28;20422;-78
2021/05/30 02:57:01;;;;;;;8.73;5.30;;;;;;;-150.07;37.27;63257.75;5016951;28;20032;-78
2021/05/30 02:59:28;;;;;;;5.47;4.68;;;;;;;-150.07;37.35;63127.94;5013511;28;20108;-77
2021/05/30 03:01:55;;;;;;;9.40;5.82;;;;;;;-150.07;37.25;63241.00;5030884;28;20084;-78
2021/05/30 03:04:22;;;;;;;4.80;4.15;;;;;;;-150.07;37.85;63236.81;5034951;28;20017;-78
2021/05/30 03:06:48;;;;;;;7.57;5.22;;;;;;;-150.07;36.01;63864.88;5033055;28;20052;-77
2021/05/30 03:09:15;;;;;;;6.93;5.47;;;;;;;-150.07;36.50;63226.34;5032818;28;20029;-77
2021/05/30 03:11:42;;;;;;;7.93;5.30;;;;;;;-150.07;36.59;63192.84;5022628;28;20556;-79
2021/05/30 03:14:09;;;;;;;7.25;6.20;;;;;;;-150.07;36.86;62939.53;5014727;28;20022;-78
2021/05/30 03:16:39;;;;;;;7.43;4.88;;;;;;;-150.07;37.07;63081.88;5031817;28;20104;-79
2021/05/30 03:19:05;;;;;;;;;;;;;;;-150.07;36.79;63289.13;5016025;28;20449;-77
2021/05/30 03:21:32;;;;;;;9.30;8.05;;;;;;;-150.07;36.76;62943.72;5016542;28;20288;-79
2021/05/30 03:24:00;;;;;;;5.53;4.95;;;;;;;-150.07;36.93;63054.69;5015755;28;20033;-79
2021/05/30 03:26:27;;;;;;;7.97;5.25;;;;;;;-150.07;36.74;63307.97;5021656;28;20018;-79
2021/05/30 03:28:54;;;;;;;5.93;5.07;;;;;;;-150.07;37.04;63307.97;5030457;28;20532;-77
2021/05/30 03:31:21;;;;;;;7.18;5.13;;;;;;;-150.07;35.85;63337.28;5024765;28;20414;-79
2021/05/30 03:33:48;;;;;;;10.63;5.53;;;;;;;-150.07;35.39;63347.75;5034361;28;20037;-78
2021/05/30 03:36:19;;;;;;;5.80;5.28;;;;;;;-150.07;35.98;63232.63;5033471;28;20045;-78
2021/05/30 03:38:47;;;;;;;9.55;5.80;;;;;;;-150.07;36.19;63370.78;5032877;28;20025;-77
2021/05/30 03:41:16;;;;;;;6.50;5.75;;;;;;;-150.07;35.88;63950.72;5025063;28;20210;-78
2021/05/30 03:43:42;;;;;;;15.35;5.22;;;;;;;-150.07;36.13;63077.69;5013436;28;20040;-79
2021/05/30 03:46:09;;;;;;;8.43;5.88;;;;;;;-150.07;35.72;63178.19;5016128;28;20057;-82
2021/05/30 03:48:36;;;;;;;9.13;6.25;;;;;;;-150.07;35.29;63102.81;5021973;28;20041;-79
2021/05/30 03:51:03;;;;;;;8.35;5.82;;;;;;;-150.07;36.28;63370.78;5032315;28;20099;-76
2021/05/30 03:53:30;;;;;;;22.95;5.78;;;;;;;-150.07;35.25;63056.78;5018656;28;20033;-78
2021/05/30 03:55:57;;;;;;;10.80;5.93;;;;;;;-150.07;35.24;63261.94;5016773;28;20166;-78
2021/05/30 03:58:25;;;;;;;7.65;5.15;;;;;;;-150.07;35.03;63341.47;5020925;28;20096;-77
2021/05/30 04:00:52;;;;;;;7.88;5.40;;;;;;;-150.07;35.64;63040.03;5031010;28;20040;-78
2021/05/30 04:03:19;;;;;;;5.57;5.05;;;;;;;-150.07;35.93;63295.41;5012663;28;20836;-77
2021/05/30 04:05:45;;;;;;;5.50;4.82;;;;;;;-150.07;36.08;63592.72;5011751;28;20033;-78
2021/05/30 04:08:12;;;;;;;8.50;6.25;;;;;;;-150.07;36.14;63483.84;5014499;28;20057;-78
2021/05/30 04:10:42;;;;;;;11.45;5.88;;;;;;;-150.07;37.08;63628.28;5033413;28;20489;-77
2021/05/30 04:13:09;;;;;;;9.93;6.85;;;;;;;-150.07;35.63;63473.38;5033547;28;20112;-77
2021/05/30 04:15:36;;;;;;;9.65;6.65;;;;;;;-150.07;35.52;63427.31;5028538;28;20030;-78
2021/05/30 04:18:03;;;;;;;11.00;6.22;;;;;;;-150.07;35.52;63521.53;5014737;28;20395;-77
2021/05/30 04:20:30;;;;;;;16.00;9.07;;;;;;;-150.07;35.56;63146.78;5032603;28;20030;-78
2021/05/30 04:22:57;;;;;;;7.72;6.78;;;;;;;-150.07;35.36;63546.66;5029832;28;20029;-76
2021/05/30 04:25:24;;;;;;;10.02;6.72;;;;;;;-150.07;35.12;63718.31;5031690;28;20021;-78
2021/05/30 04:27:51;;;;;;;18.90;7.30;;;;;;;-150.07;35.20;63548.75;5015711;28;20040;-78
2021/05/30 04:30:18;;;;;;;10.10;8.10;;;;;;;-150.07;35.23;63567.59;5011508;28;20030;-77
2021/05/30 04:32:45;;;;;;;10.27;6.70;;;;;;;-150.07;35.44;63584.34;5021738;28;20025;-77
2021/05/30 04:35:13;;;;;;;12.88;6.20;;;;;;;-150.07;34.92;63636.69;5032348;28;20053;-77
2021/05/30 04:37:40;;;;;;;10.63;7.05;;;;;;;-150.07;34.13;63433.59;5031656;28;20123;-76
2021/05/30 04:40:08;;;;;;;12.65;8.63;;;;;;;-150.07;34.24;63316.34;5031451;28;20390;-77
2021/05/30 04:42:35;;;;;;;10.85;7.80;;;;;;;-150.07;34.39;63596.91;5020770;28;20033;-76
2021/05/30 04:45:02;;;;;;;15.50;8.05;;;;;;;-150.07;34.23;63689.00;5021656;28;20097;-79
2021/05/30 04:47:29;;;;;;;13.52;8.38;;;;;;;-150.07;34.31;63776.94;5021018;28;20032;-78
2021/05/30 04:49:56;;;;;;;13.07;6.85;;;;;;;-150.07;34.84;64222.94;5032181;28;20037;-76
2021/05/30 04:52:23;;;;;;;12.90;7.07;;;;;;;-150.07;34.46;63881.63;5042623;28;20038;-77
2021/05/30 04:54:50;;;;;;;15.50;7.97;;;;;;;-150.07;34.44;63521.53;5045151;28;20052;-78
2021/05/30 04:57:17;;;;;;;13.52;7.93;;;;;;;-150.07;34.57;63944.47;5039302;28;20055;-76
2021/05/30 04:59:44;;;;;;;12.95;7.22;;;;;;;-150.07;34.67;63864.88;5026595;28;20025;-77
2021/05/30 05:02:11;;;;;;;13.45;7.93;;;;;;;-150.07;34.46;63887.91;5025119;28;20021;-77
2021/05/30 05:04:38;;;;;;;17.33;8.23;;;;;;;-150.07;34.30;63881.63;5037467;28;20075;-78
2021/05/30 05:07:05;;;;;;;13.05;7.75;;;;;;;-150.07;34.24;63919.31;5036137;28;20394;-77
2021/05/30 05:09:32;;;;;;;20.30;9.02;;;;;;;-150.07;34.83;63894.19;5022719;28;20012;-78
2021/05/30 05:11:59;;;;;;;9.80;8.45;;;;;;;-150.07;34.97;63592.72;5014880;28;20018;-77
2021/05/30 05:14:26;;;;;;;11.70;7.50;;;;;;;-150.07;34.58;63726.69;5032716;28;20022;-78
2021/05/30 05:16:53;;;;;;;16.50;7.72;;;;;;;-150.07;34.72;63948.63;5034131;28;20029;-77
2021/05/30 05:19:20;;;;;;;9.20;5.82;;;;;;;-150.07;34.86;63766.47;5038124;28;20017;-78
2021/05/30 05:21:47;;;;;;;13.20;6.28;;;;;;;-150.07;34.79;63753.91;5030878;28;20066;-77
2021/05/30 05:24:14;;;;;;;8.27;7.43;;;;;;;-150.07;35.70;63908.84;5026879;28;20018;-79
2021/05/30 05:26:40;;;;;;;11.63;7.85;;;;;;;-150.07;35.11;63890.00;5026393;28;20022;-77
2021/05/30 05:29:07;;;;;;;13.48;9.02;;;;;;;-150.07;34.41;63910.94;5039332;28;20021;-78
2021/05/30 05:31:34;;;;;;;10.23;7.63;;;;;;;-150.07;35.08;63967.50;5043147;28;20030;-77
2021/05/30 05:34:01;;;;;;;18.27;7.95;;;;;;;-150.07;35.22;64790.44;5038131;28;20034;-77
2021/05/30 05:36:28;;;;;;;17.02;7.18;;;;;;;-150.07;34.97;64187.34;5036028;28;20030;-79
2021/05/30 05:38:55;;;;;;;8.70;6.47;;;;;;;-150.07;35.23;64564.28;5028296;28;20022;-78
2021/05/30 05:41:22;;;;;;;18.80;9.02;;;;;;;-150.07;34.03;64195.72;5031738;28;20022;-77
2021/05/30 05:43:48;;;;;;;13.40;7.03;;;;;;;-150.07;34.74;64382.09;5034955;28;20025;-77
2021/05/30 05:46:15;;;;;;;12.35;6.90;;;;;;;-150.07;34.22;63869.06;5042748;28;20072;-77
2021/05/30 05:48:42;;;;;;;13.57;8.10;;;;;;;-150.07;34.60;64461.66;5029298;28;20475;-79
2021/05/30 05:51:09;;;;;;;12.13;7.63;;;;;;;-150.07;34.52;64005.19;5037120;28;20021;-79
2021/05/30 05:53:36;;;;;;;10.93;7.68;;;;;;;-150.07;34.24;63927.69;5020719;28;20052;-78
2021/05/30 05:56:03;;;;;;;7.47;6.38;;;;;;;-150.07;34.38;64214.56;5025494;28;20037;-77
2021/05/30 05:58:30;;;;;;;10.10;7.50;;;;;;;-150.07;34.72;64051.25;5041481;28;20028;-78
2021/05/30 06:00:57;;;;;;;18.45;7.63;;;;;;;-150.07;34.10;64193.63;5040171;28;20158;-76
2021/05/30 06:03:24;;;;;;;12.60;7.22;;;;;;;-150.07;34.86;64254.34;5036000;28;20029;-78
2021/05/30 06:05:51;;;;;;;11.77;7.93;;;;;;;-150.07;37.50;64514.03;5036825;28;20029;-78
2021/05/30 06:08:17;;;;;;;12.25;8.07;;;;;;;-150.07;37.17;64187.34;5033726;28;20152;-77
2021/05/30 06:10:44;;;;;;;10.93;7.88;;;;;;;-150.07;37.55;64095.22;5038103;28;20017;-76
2021/05/30 06:13:11;;;;;;;8.63;6.85;;;;;;;-150.07;37.92;63940.25;5041609;28;20033;-78
2021/05/30 06:15:39;;;;;;;14.95;11.05;;;;;;;-150.07;38.04;63898.38;5032410;28;20022;-76
2021/05/30 06:18:17;;;;;;;8.80;7.70;;;;;;;-150.07;37.56;63599.00;5023745;28;20486;-78
2021/05/30 06:20:46;;;;;;;13.30;7.80;;;;;;;-150.07;37.77;63680.63;5018269;28;20037;-79
2021/05/30 06:23:14;;;;;;;25.55;8.32;;;;;;;-150.07;37.60;63718.31;5020182;28;20018;-78
2021/05/30 06:25:43;;;;;;;8.63;7.65;;;;;;;-150.07;37.24;63745.53;5031688;28;20018;-76
2021/05/30 06:28:10;;;;;;;10.57;7.27;;;;;;;-150.07;36.99;63628.28;5015582;28;20030;-78
2021/05/30 06:30:39;;;;;;;11.50;7.95;;;;;;;-150.07;36.72;64629.19;5016079;28;20308;-76
2021/05/30 06:33:07;;;;;;;14.65;7.88;;;;;;;-150.07;36.61;63904.66;5016763;28;20026;-77
2021/05/30 06:35:36;;;;;;;13.98;6.72;;;;;;;-150.07;37.01;64597.78;5021777;28;20034;-78
2021/05/30 06:38:03;;;;;;;7.68;6.75;;;;;;;-150.07;36.51;63856.50;5018614;28;20368;-77
2021/05/30 06:40:30;;;;;;;12.55;6.63;;;;;;;-150.07;36.74;63973.78;5026640;28;20089;-77
2021/05/30 06:42:57;;;;;;;11.85;7.07;;;;;;;-150.07;35.99;63904.66;5022970;28;20018;-78
2021/05/30 06:45:24;;;;;;;10.23;7.28;;;;;;;-150.07;35.60;63986.34;5018261;28;20506;-77
2021/05/30 06:47:52;;;;;;;12.80;6.80;;;;;;;-150.07;35.42;64111.97;5015353;28;20069;-78
2021/05/30 06:50:20;;;;;;;7.88;6.20;;;;;;;-150.07;35.78;63990.53;5023150;28;20060;-78
2021/05/30 06:52:49;;;;;;;11.45;7.22;;;;;;;-150.07;36.16;63676.44;5021486;28;20030;-78
2021/05/30 06:55:19;;;;;;;13.43;7.22;;;;;;;-150.07;35.94;63772.75;5020124;28;20029;-78
2021/05/30 06:57:46;;;;;;;7.82;7.03;;;;;;;-150.07;36.06;63701.56;5025826;28;20030;-78
2021/05/30 07:00:13;;;;;;;9.95;6.53;;;;;;;-150.07;35.98;63753.91;5036113;28;20021;-77
2021/05/30 07:02:40;;;;;;;15.55;6.47;;;;;;;-150.07;36.14;63768.56;5036005;28;20021;-78
2021/05/30 07:05:08;;;;;;;11.63;8.40;;;;;;;-150.07;36.14;63607.38;5036536;28;20703;-78
2021/05/30 07:07:35;;;;;;;11.52;6.20;;;;;;;-150.07;36.73;63718.31;5035253;28;20018;-78
2021/05/30 07:10:04;;;;;;;15.77;7.68;;;;;;;-150.07;36.31;63561.31;5034207;28;20033;-77
2021/05/30 07:12:30;;;;;;;11.27;6.03;;;;;;;-150.07;36.15;63921.41;5020238;28;20077;-78
2021/05/30 07:14:59;;;;;;;8.10;6.80;;;;;;;-150.07;35.28;63843.94;5013286;28;20026;-78
2021/05/30 07:17:27;;;;;;;9.90;7.07;;;;;;;-150.07;35.07;63787.41;5031723;28;20026;-78
2021/05/30 07:19:57;;;;;;;9.80;6.35;;;;;;;-150.07;35.78;63969.59;5035668;28;20028;-77
2021/05/30 07:22:23;;;;;;;;;;;;;;;-150.07;35.11;63973.78;5034748;28;20037;-78
2021/05/30 07:24:50;;;;;;;13.55;7.00;;;;;;;-150.07;34.80;64024.03;5038074;28;19927;-76
2021/05/30 07:27:17;;;;;;;18.02;8.43;;;;;;;-150.07;35.37;63408.47;5027398;28;20133;-77
2021/05/30 07:29:44;;;;;;;7.80;6.25;;;;;;;-150.07;35.40;64562.19;5022136;28;20010;-77
2021/05/30 07:32:11;;;;;;;9.23;6.45;;;;;;;-150.07;35.45;64493.06;5034960;28;20052;-75
2021/05/30 07:34:38;;;;;;;9.13;6.45;;;;;;;-150.07;35.20;63896.28;5040913;28;20026;-77
2021/05/30 07:37:05;;;;;;;10.02;7.13;;;;;;;-150.07;35.32;64017.75;5041132;28;20029;-78
2021/05/30 07:39:33;;;;;;;8.32;6.13;;;;;;;-150.07;34.62;64124.53;5045005;28;20060;-76
2021/05/30 07:42:00;;;;;;;8.90;5.78;;;;;;;-150.07;34.85;64132.91;5038762;28;20045;-77
2021/05/30 07:44:27;;;;;;;10.75;6.38;;;;;;;-150.07;34.39;64229.22;5027185;28;20026;-77
2021/05/30 07:46:55;;;;;;;10.63;7.72;;;;;;;-150.07;34.41;63948.63;5022904;28;20040;-75
2021/05/30 07:49:22;;;;;;;12.82;6.47;;;;;;;-150.07;34.99;63961.22;5022053;28;20030;-77
2021/05/30 07:51:49;;;;;;;15.88;6.90;;;;;;;-150.07;34.91;63961.22;5025375;28;20026;-80
2021/05/30 07:54:17;;;;;;;12.43;7.38;;;;;;;-150.07;34.59;64141.28;5025133;28;20028;-78
2021/05/30 07:56:45;;;;;;;11.57;7.07;;;;;;;-150.07;34.31;63670.16;5032477;28;20080;-77
2021/05/30 07:59:14;;;;;;;8.63;7.68;;;;;;;-150.07;35.03;64080.56;5036740;28;20066;-77
2021/05/30 08:01:41;;;;;;;10.68;6.35;;;;;;;-150.07;34.67;64809.31;5035405;28;20073;-79
2021/05/30 08:04:08;;;;;;;10.50;6.55;;;;;;;-150.07;34.12;64304.59;5033832;28;20030;-78
2021/05/30 08:06:35;;;;;;;11.23;6.72;;;;;;;-150.07;33.98;64191.53;5037904;28;20061;-77
2021/05/30 08:09:02;;;;;;;14.50;6.82;;;;;;;-150.07;34.18;64183.16;5043255;28;20043;-78
2021/05/30 08:11:29;;;;;;;12.18;6.88;;;;;;;-150.07;35.37;64017.75;5037926;28;20018;-77
2021/05/30 08:13:57;;;;;;;11.38;7.43;;;;;;;-150.07;35.26;64635.47;5030167;28;20033;-78
2021/05/30 08:16:24;;;;;;;9.70;6.65;;;;;;;-150.07;35.22;64057.53;5030332;28;20038;-77
2021/05/30 08:18:51;;;;;;;10.98;6.68;;;;;;;-150.07;35.30;64143.38;5053655;28;20020;-80
2021/05/30 08:21:18;;;;;;;9.60;7.22;;;;;;;-150.07;35.59;64193.63;5032047;28;20033;-78
2021/05/30 08:23:45;;;;;;;10.48;6.97;;;;;;;-150.07;35.64;64819.78;5041069;28;20030;-77
2021/05/30 08:26:12;;;;;;;11.32;6.45;;;;;;;-150.07;35.63;63957.03;5027651;28;20030;-78
2021/05/30 08:28:39;;;;;;;11.80;6.93;;;;;;;-150.07;35.69;63846.03;5026983;28;20034;-78
2021/05/30 08:31:06;;;;;;;9.45;6.75;;;;;;;-150.07;36.01;63843.94;5023652;28;20030;-77
2021/05/30 08:33:33;;;;;;;11.60;5.88;;;;;;;-150.07;35.88;63789.50;5021564;28;20038;-78
2021/05/30 08:36:02;;;;;;;10.52;7.40;;;;;;;-150.07;35.93;64490.97;5025859;28;20022;-79
2021/05/30 08:38:28;;;;;;;13.57;8.15;;;;;;;-150.07;36.28;63823.00;5023123;28;20030;-79
2021/05/30 08:40:56;;;;;;;11.20;7.47;;;;;;;-150.07;36.50;63596.91;5039146;28;20067;-78
2021/05/30 08:43:23;;;;;;;18.90;7.47;;;;;;;-150.07;36.69;63724.59;5035770;28;20032;-77
2021/05/30 08:45:51;;;;;;;11.32;7.93;;;;;;;-150.07;36.52;63810.44;5045643;28;20029;-78
2021/05/30 08:48:18;;;;;;;11.40;7.35;;;;;;;-150.07;36.60;63536.19;5028952;28;20029;-77
2021/05/30 08:51:01;;;;;;;13.18;7.88;;;;;;;-150.07;36.81;63726.69;5029937;28;20032;-78
2021/05/30 08:53:29;;;;;;;11.15;7.53;;;;;;;-150.07;37.17;63575.97;5029485;28;20030;-78
2021/05/30 08:55:56;;;;;;;17.25;7.40;;;;;;;-150.07;37.38;63910.94;5038763;28;20105;-78
2021/05/30 08:58:32;;;;;;;16.10;9.32;;;;;;;-150.07;37.47;63379.16;5028580;28;20053;-77
2021/05/30 09:01:12;;;;;;;11.95;6.57;;;;;;;-150.07;37.82;63659.69;5023281;28;20094;-76
2021/05/30 09:04:05;;;;;;;;;;;;;;;-150.07;37.58;63596.91;5030177;28;20113;-79
2021/05/30 09:06:32;;;;;;;14.90;7.82;;;;;;;-150.07;38.10;63596.91;5038312;28;19918;-78
2021/05/30 09:08:59;;;;;;;18.52;8.07;;;;;;;-150.07;38.05;63295.41;5026759;28;20026;-77
2021/05/30 09:11:48;;;;;;;22.00;8.70;;;;;;;-150.07;38.23;63596.91;5038820;28;20053;-77
2021/05/30 09:14:20;;;;;;;10.73;7.25;;;;;;;-150.07;38.11;63391.72;5028231;28;20390;-82
2021/05/30 09:17:09;;;;;;;10.85;7.35;;;;;;;-150.07;38.25;63519.44;5034786;28;20028;-79
2021/05/30 09:19:45;;;;;;;;;;;;;;;-150.07;40.00;63532.00;5039516;28;20116;-82
2021/05/30 09:22:24;;;;;;;13.20;9.63;;;;;;;-150.07;41.27;63307.97;5038941;28;19917;-81
2021/05/30 09:24:51;;;;;;;16.00;12.50;;;;;;;-150.07;43.48;63125.84;5053006;28;20154;-81
2021/05/30 09:27:20;;;;;;;22.63;15.48;;;;;;;-150.07;44.91;62952.09;5033279;28;20037;-81
2021/05/30 09:30:19;;;;;;;23.92;17.75;;;;;;;-150.07;46.85;62659.03;5030931;28;20117;-85
2021/05/30 09:33:03;;;;;;;30.45;21.83;;;;;;;-150.07;47.54;62449.75;5030688;28;20033;-78
2021/05/30 09:35:52;;;;;;;35.63;21.83;;;;;;;-150.07;47.52;62453.94;5019229;28;20041;-78
2021/05/30 09:38:30;;;;;;;26.30;23.45;;;;;;;-150.07;48.38;62290.66;5026804;28;20020;-77
2021/05/30 09:41:12;;;;;;;25.30;22.55;;;;;;;-150.07;48.38;62238.34;5025145;28;20041;-77
2021/05/30 09:43:52;;;;;;;32.35;23.45;;;;;;;-150.07;49.44;62242.53;5015080;28;20034;-85
2021/05/30 09:46:44;;;;;;;;;;;;;;;-150.07;49.42;62328.34;5032171;28;20057;-85
2021/05/30 09:49:12;;;;;;;44.05;27.83;;;;;;;-150.07;50.03;62012.31;5020881;28;19928;-87
2021/05/30 09:51:41;;;;;;;44.15;24.42;;;;;;;-150.07;54.25;62830.69;5020315;28;20044;-85
2021/05/30 09:54:14;;;;;;;51.73;29.20;;;;;;;-150.07;58.87;61673.28;5042793;28;20086;-84
2021/05/30 09:56:44;;;;;;;50.28;29.55;;;;;;;-150.07;59.73;61549.84;5026786;28;20076;-87
2021/05/30 09:59:16;;;;;;;74.60;36.03;;;;;;;-150.07;62.87;61507.97;5034669;28;20715;-81
2021/05/30 10:01:59;;;;;;;62.35;31.48;;;;;;;-150.07;64.93;61658.66;5019213;28;20390;-77
2021/05/30 10:04:31;;;;;;;68.38;36.95;;;;;;;-150.07;65.96;61667.00;5014013;28;20034;-77
2021/05/30 10:07:04;;;;;;;73.05;39.47;;;;;;;-150.07;68.34;61687.94;5014001;28;20033;-78
2021/05/30 10:09:31;;;;;;;55.25;38.67;;;;;;;-150.07;69.49;61662.84;5014717;28;20080;-78
2021/05/30 10:11:59;;;;;;;73.07;42.55;;;;;;;-150.07;69.37;61512.16;5041139;28;20103;-77
2021/05/30 10:14:28;;;;;;;71.78;40.92;;;;;;;-150.07;69.84;61675.38;5031767;28;20017;-76
2021/05/30 10:16:55;;;;;;;66.03;38.42;;;;;;;-150.07;70.26;61713.06;5020344;28;20120;-76
2021/05/30 10:19:27;;;;;;;73.55;38.38;;;;;;;-150.07;70.94;61549.84;5017768;28;20080;-76
2021/05/30 10:21:57;;;;;;;55.15;37.58;;;;;;;-150.07;71.68;61748.63;5018071;28;20095;-78
2021/05/30 10:24:25;;;;;;;57.25;36.40;;;;;;;-150.07;71.50;62077.19;5031431;28;20036;-80
2021/05/30 10:27:16;;;;;;;61.65;37.55;;;;;;;-150.07;70.71;61713.06;5014901;28;20034;-77
2021/05/30 10:30:15;;;;;;;60.80;37.88;;;;;;;-150.07;71.58;61713.06;5026808;28;20026;-78
2021/05/30 10:38:42;;;;;;;64.00;43.58;;;;;;;-150.07;71.13;61658.66;5614967;23;20050;-82
2021/05/30 10:41:23;;;;;;;69.57;41.20;;;;;;;-150.07;71.38;61650.28;5012081;28;20041;-80
2021/05/30 10:43:51;;;;;;;65.60;42.38;;;;;;;-150.07;71.40;62520.91;5011288;28;20037;-83
2021/05/30 10:46:19;;;;;;;55.10;41.42;;;;;;;-150.07;70.66;62497.88;5004363;28;20034;-84
2021/05/30 10:49:07;;;;;;;68.85;44.03;;;;;;;-150.07;69.73;61867.91;5028115;28;20095;-82
2021/05/30 10:51:49;;;;;;;63.70;44.08;;;;;;;-150.07;69.71;61874.19;5013228;28;20116;-85
2021/05/30 10:54:16;;;;;;;63.60;43.50;;;;;;;-150.07;69.56;61876.28;5013718;28;20030;-80
2021/05/30 10:56:55;;;;;;;65.38;44.22;;;;;;;-150.07;69.39;61939.06;5007305;28;20023;-83
2021/05/30 10:59:25;;;;;;;58.85;45.30;;;;;;;-150.07;69.02;61909.78;4995280;28;20102;-81
2021/05/30 11:01:53;;;;;;;67.57;47.58;;;;;;;-150.07;69.69;62520.91;5000867;28;20061;-81
2021/05/30 11:04:29;;;;;;;63.97;49.38;;;;;;;-150.07;70.51;61872.09;5012763;28;20034;-84
2021/05/30 11:07:04;;;;;;;73.68;48.90;;;;;;;-150.07;70.36;61909.78;5011546;28;20030;-85
2021/05/30 11:09:53;;;;;;;82.20;50.88;;;;;;;-150.07;70.27;61893.03;5009402;28;20018;-83
2021/05/30 11:12:28;;;;;;;69.10;49.03;;;;;;;-150.07;70.43;61853.25;5012173;28;20040;-81
2021/05/30 11:15:25;;;;;;;73.63;51.03;;;;;;;-150.07;70.68;61905.59;5006396;28;20018;-83
2021/05/30 11:17:58;;;;;;;65.32;48.05;;;;;;;-150.07;70.02;62598.34;5011067;28;20026;-81
2021/05/30 11:20:27;;;;;;;69.72;50.03;;;;;;;-150.07;69.04;61970.47;5007883;28;20040;-82
2021/05/30 11:22:57;;;;;;;49.88;37.33;;;;;;;-150.07;69.47;61962.09;5009347;28;20490;-82
2021/05/30 11:25:34;;;;;;;;;;;;;;;-150.07;69.91;61930.69;5011021;28;20026;-81
2021/05/30 11:28:03;;;;;;;64.43;47.38;;;;;;;-150.07;69.87;61928.59;5012050;28;19924;-87